Amargosa Valley, Nevada
Current Conditions -  °F | °C
As of 11:52 AM on Thursday 29 Jan 2015 (Local Time) from KDRA Reporting Station
Overcast Overcast  
Wind Chill: 58°   Ceiling: 8000
Heat Index: 58°   Visibility: 10mi
Dew Point: 35°   Wind: 10mph
Humidity: 42%   Direction: 30°NNE
Pressure: 30.18"   Gusts: NA
Location:  36.64°N, 116.4°W
Report Text: KDRA 291952Z AUTO 03009KT 10SM BKN080 OVC095 14/02 A3018 RMK AO2 SLP197 T01440017
Loading
Personal Weather Stations






























Interactive Weather Map New forecast layout! Learn more

10-Day Weather Forecast

Advertisements
Track Severe Weather on mobile